Gold Beach, Oregon
Current Conditions -  °F | °C
As of 5:56 PM on Monday 24 Nov 2014 (Local Time) from KBOK Reporting Station
Overcast Overcast  
Wind Chill: 54°   Ceiling: 2100
Heat Index: 54°   Visibility: 10mi
Dew Point: 47°   Wind: 0mph
Humidity: 77%   Direction: NA
Pressure: 30.41"   Gusts: NA
Location:  42.41°N, 124.42°W
Report Text: KBOK 250156Z AUTO 00000KT 10SM OVC021 12/08 A3041 RMK AO2 T01220083 SLP300
Loading
Personal Weather Stations






























Interactive Weather Map New forecast layout! Learn more

10-Day Weather Forecast

Advertisements
Track Severe Weather on mobile